createdAt,value
2018-02-08T00:00:14.134Z,54.47
2018-02-08T00:02:41.712Z,57.40
2018-02-08T00:05:09.846Z,56.33
2018-02-08T00:07:37.783Z,55.13
2018-02-08T00:10:06.374Z,53.17
2018-02-08T00:12:33.930Z,54.90
2018-02-08T00:15:01.549Z,55.87
2018-02-08T00:17:29.174Z,51.90
2018-02-08T00:19:56.703Z,51.80
2018-02-08T00:22:35.902Z,55.40
2018-02-08T00:25:03.487Z,52.90
2018-02-08T00:27:30.981Z,55.50
2018-02-08T00:29:58.613Z,58.90
2018-02-08T00:32:26.141Z,52.10
2018-02-08T00:34:53.746Z,57.43
2018-02-08T00:37:21.706Z,54.00
2018-02-08T00:39:49.373Z,60.27
2018-02-08T00:42:17.135Z,54.17
2018-02-08T00:44:45.719Z,52.83
2018-02-08T00:47:13.241Z,57.70
2018-02-08T00:49:40.907Z,54.13
2018-02-08T00:52:08.395Z,62.17
2018-02-08T00:54:35.992Z,61.30
2018-02-08T00:57:03.591Z,51.00
2018-02-08T00:59:31.168Z,60.13
2018-02-08T01:01:58.705Z,52.97
2018-02-08T01:04:26.218Z,53.53
2018-02-08T01:06:53.746Z,48.07
2018-02-08T01:09:21.401Z,57.57
2018-02-08T01:11:49.071Z,56.30
2018-02-08T01:14:16.629Z,56.77
2018-02-08T01:16:44.124Z,58.17
2018-02-08T01:19:11.837Z,55.40
2018-02-08T01:21:39.349Z,54.03
2018-02-08T01:24:06.902Z,58.47
2018-02-08T01:26:34.460Z,59.43
2018-02-08T01:29:02.028Z,51.07
2018-02-08T01:31:29.552Z,56.93
2018-02-08T01:33:57.238Z,64.63
2018-02-08T01:36:24.793Z,59.63
2018-02-08T01:38:52.433Z,50.73
2018-02-08T01:41:20.022Z,60.17
2018-02-08T01:43:47.617Z,60.40
2018-02-08T01:46:15.152Z,65.10
2018-02-08T01:48:42.726Z,51.57
2018-02-08T01:51:10.227Z,59.73
2018-02-08T01:53:37.946Z,63.27
2018-02-08T01:56:05.442Z,60.77
2018-02-08T01:58:32.993Z,61.37
2018-02-08T02:01:00.509Z,58.77
2018-02-08T02:03:28.139Z,61.70
2018-02-08T02:05:55.674Z,67.27
2018-02-08T02:08:23.224Z,59.70
2018-02-08T02:10:50.781Z,58.17
2018-02-08T02:13:18.270Z,59.37
2018-02-08T02:15:45.765Z,59.80
2018-02-08T02:18:13.288Z,55.60
2018-02-08T02:20:40.815Z,62.47
2018-02-08T02:23:08.370Z,56.93
2018-02-08T02:25:35.891Z,65.30
2018-02-08T02:28:03.386Z,61.73
2018-02-08T02:30:30.886Z,58.13
2018-02-08T02:32:58.447Z,59.87
2018-02-08T02:35:25.992Z,62.03
2018-02-08T02:37:54.099Z,57.87
2018-02-08T02:40:21.617Z,52.67
2018-02-08T02:42:49.158Z,57.63
2018-02-08T02:45:16.656Z,61.23
2018-02-08T02:47:44.209Z,62.60
2018-02-08T02:50:11.761Z,52.90
2018-02-08T02:52:39.262Z,64.43
2018-02-08T02:55:06.905Z,57.43
2018-02-08T02:57:34.421Z,57.90
2018-02-08T03:00:02.035Z,66.07
2018-02-08T03:02:29.531Z,59.63
2018-02-08T03:04:57.297Z,63.13
2018-02-08T03:07:24.821Z,63.40
2018-02-08T03:09:52.359Z,59.07
2018-02-08T03:12:20.022Z,68.03
2018-02-08T03:14:47.590Z,61.50
2018-02-08T03:17:16.004Z,60.40
2018-02-08T03:19:43.629Z,61.80
2018-02-08T03:22:11.162Z,64.23
2018-02-08T03:24:38.670Z,64.47
2018-02-08T03:27:06.188Z,62.77
2018-02-08T03:29:33.706Z,59.67
2018-02-08T03:32:01.332Z,56.87
2018-02-08T03:34:28.904Z,55.87
2018-02-08T03:36:56.547Z,60.87
2018-02-08T03:39:24.093Z,55.53
2018-02-08T03:41:51.584Z,64.67
2018-02-08T03:44:19.125Z,59.20
2018-02-08T03:46:46.703Z,66.63
2018-02-08T03:49:14.213Z,61.10
2018-02-08T03:51:41.811Z,61.70
2018-02-08T03:54:09.351Z,56.67
2018-02-08T03:56:37.487Z,58.40
2018-02-08T03:59:04.981Z,59.10
2018-02-08T04:01:32.517Z,55.93
2018-02-08T04:04:00.040Z,62.93
2018-02-08T04:06:27.554Z,61.53
2018-02-08T04:08:55.570Z,62.83
2018-02-08T04:11:23.081Z,57.33
2018-02-08T04:13:50.663Z,65.50
2018-02-08T04:16:18.159Z,55.20
2018-02-08T04:18:45.704Z,58.87
2018-02-08T04:21:13.352Z,49.53
2018-02-08T04:23:40.895Z,63.30
2018-02-08T04:26:08.515Z,57.87
2018-02-08T04:28:36.019Z,63.03
2018-02-08T04:31:03.563Z,60.57
2018-02-08T04:33:31.062Z,64.53
2018-02-08T04:35:58.587Z,60.90
2018-02-08T04:38:37.759Z,56.57
2018-02-08T04:41:17.711Z,57.73
2018-02-08T04:43:57.088Z,63.27
2018-02-08T04:46:36.483Z,61.67
2018-02-08T04:49:04.019Z,55.97
2018-02-08T04:51:33.240Z,58.37
2018-02-08T04:54:00.809Z,62.87
2018-02-08T04:56:28.335Z,58.73
2018-02-08T04:58:55.943Z,56.33
2018-02-08T05:01:23.476Z,55.23
2018-02-08T05:03:50.973Z,58.83
2018-02-08T05:06:18.521Z,68.43
2018-02-08T05:08:46.117Z,60.20
2018-02-08T05:11:13.652Z,55.80
2018-02-08T05:13:41.206Z,58.73
2018-02-08T05:16:08.701Z,62.87
2018-02-08T05:18:36.235Z,66.07
2018-02-08T05:21:03.799Z,63.97
2018-02-08T05:23:31.401Z,60.60
2018-02-08T05:25:58.893Z,64.83
2018-02-08T05:28:26.429Z,58.97
2018-02-08T05:30:53.952Z,57.07
2018-02-08T05:33:21.476Z,68.30
2018-02-08T05:35:49.002Z,59.57
2018-02-08T05:38:16.526Z,70.07
2018-02-08T05:40:44.135Z,73.27
2018-02-08T05:43:11.649Z,59.57
2018-02-08T05:45:39.174Z,59.83
2018-02-08T05:48:12.609Z,72.87
2018-02-08T05:50:40.148Z,63.13
2018-02-08T05:53:13.099Z,57.63
2018-02-08T05:55:40.619Z,62.23
2018-02-08T05:58:08.257Z,64.80
2018-02-08T06:00:35.793Z,62.53
2018-02-08T06:03:03.299Z,73.27
2018-02-08T06:05:30.813Z,62.00
2018-02-08T06:07:58.356Z,65.40
2018-02-08T06:10:25.847Z,69.67
2018-02-08T06:12:53.393Z,60.27
2018-02-08T06:15:20.910Z,64.90
2018-02-08T06:17:48.476Z,66.67
2018-02-08T06:20:16.049Z,72.23
2018-02-08T06:22:43.546Z,64.90
2018-02-08T06:25:11.104Z,64.97
2018-02-08T06:27:38.604Z,60.10
2018-02-08T06:30:06.105Z,75.47
2018-02-08T06:32:33.643Z,67.07
2018-02-08T06:35:01.275Z,67.33
2018-02-08T06:37:28.797Z,71.77
2018-02-08T06:39:56.352Z,61.93
2018-02-08T06:42:23.877Z,58.40
2018-02-08T06:44:51.454Z,71.73
2018-02-08T06:47:18.924Z,62.63
2018-02-08T06:49:46.448Z,70.00
2018-02-08T06:52:13.937Z,63.97
2018-02-08T06:54:41.509Z,72.97
2018-02-08T06:57:09.069Z,63.63
2018-02-08T06:59:36.606Z,62.07
2018-02-08T07:02:04.142Z,60.97
2018-02-08T07:04:31.682Z,63.83
2018-02-08T07:06:59.200Z,69.20
2018-02-08T07:09:26.740Z,69.10
2018-02-08T07:11:54.268Z,67.83
2018-02-08T07:14:21.782Z,71.27
2018-02-08T07:16:49.318Z,74.37
2018-02-08T07:19:16.879Z,76.43
2018-02-08T07:21:44.400Z,86.03
2018-02-08T07:24:11.925Z,71.33
2018-02-08T07:26:40.194Z,69.83
2018-02-08T07:29:07.723Z,68.10
2018-02-08T07:31:35.270Z,68.20
2018-02-08T07:34:02.800Z,72.53
2018-02-08T07:36:30.377Z,73.50
2018-02-08T07:38:57.943Z,71.57
2018-02-08T07:41:25.436Z,67.73
2018-02-08T07:43:52.977Z,75.50
2018-02-08T07:46:20.510Z,77.27
2018-02-08T07:48:48.065Z,80.50
2018-02-08T07:51:15.701Z,69.73
2018-02-08T07:53:43.212Z,69.20
2018-02-08T07:56:10.756Z,78.70
2018-02-08T07:58:38.325Z,84.43
2018-02-08T08:01:05.830Z,71.77
2018-02-08T08:03:33.337Z,79.80
2018-02-08T08:06:00.898Z,74.87
2018-02-08T08:08:28.419Z,70.53
2018-02-08T08:10:56.321Z,71.03
2018-02-08T08:13:23.846Z,73.10
2018-02-08T08:15:51.408Z,72.70
2018-02-08T08:18:18.932Z,74.77
2018-02-08T08:20:46.445Z,72.53
2018-02-08T08:23:13.983Z,75.57
2018-02-08T08:25:41.486Z,75.93
2018-02-08T08:28:08.989Z,70.97
2018-02-08T08:30:36.529Z,71.73
2018-02-08T08:33:04.064Z,79.57
2018-02-08T08:35:31.579Z,76.20
2018-02-08T08:37:59.095Z,78.73
2018-02-08T08:40:26.685Z,69.33
2018-02-08T08:42:54.180Z,69.70
2018-02-08T08:45:21.705Z,68.07
2018-02-08T08:47:49.210Z,70.20
2018-02-08T08:50:16.705Z,74.23
2018-02-08T08:52:44.226Z,64.50
2018-02-08T08:55:11.731Z,70.20
2018-02-08T08:57:39.217Z,68.27
2018-02-08T09:00:06.744Z,66.87
2018-02-08T09:02:34.232Z,74.83
2018-02-08T09:05:01.732Z,65.17
2018-02-08T09:07:29.232Z,74.73
2018-02-08T09:09:56.741Z,70.00
2018-02-08T09:12:24.271Z,71.90
2018-02-08T09:14:51.778Z,66.43
2018-02-08T09:17:19.280Z,70.93
2018-02-08T09:19:46.800Z,63.83
2018-02-08T09:22:14.325Z,65.17
2018-02-08T09:24:41.857Z,62.20
2018-02-08T09:27:09.358Z,70.70
2018-02-08T09:29:36.884Z,66.97
2018-02-08T09:32:04.412Z,69.60
2018-02-08T09:34:31.950Z,68.07
2018-02-08T09:36:59.530Z,75.97
2018-02-08T09:39:27.108Z,69.97
2018-02-08T09:41:54.624Z,65.63
2018-02-08T09:44:22.165Z,73.10
2018-02-08T09:46:49.669Z,69.37
2018-02-08T09:49:17.193Z,68.77
2018-02-08T09:51:51.512Z,69.00
2018-02-08T09:54:19.113Z,68.13
2018-02-08T09:56:46.651Z,69.03
2018-02-08T09:59:14.141Z,69.37
2018-02-08T10:01:41.644Z,70.67
2018-02-08T10:04:09.169Z,66.37
2018-02-08T10:06:36.693Z,68.03
2018-02-08T10:09:04.221Z,70.20
2018-02-08T10:11:32.323Z,68.27
2018-02-08T10:13:59.845Z,69.97
2018-02-08T10:16:27.382Z,70.57
2018-02-08T10:18:54.895Z,62.80
2018-02-08T10:21:22.454Z,69.03
2018-02-08T10:23:50.010Z,66.70
2018-02-08T10:26:17.580Z,63.00
2018-02-08T10:28:45.092Z,70.50
2018-02-08T10:31:12.569Z,65.73
2018-02-08T10:33:40.278Z,74.27
2018-02-08T10:36:08.527Z,71.77
2018-02-08T10:38:36.059Z,74.50
2018-02-08T10:41:03.878Z,71.60
2018-02-08T10:43:31.434Z,69.90
2018-02-08T10:45:59.243Z,76.20
2018-02-08T10:48:27.546Z,70.23
2018-02-08T10:50:55.182Z,75.10
2018-02-08T10:53:22.702Z,69.60
2018-02-08T10:55:50.200Z,77.63
2018-02-08T10:58:17.698Z,72.03
2018-02-08T11:00:45.240Z,73.10
2018-02-08T11:03:12.926Z,73.87
2018-02-08T11:05:40.440Z,77.50
2018-02-08T11:08:07.977Z,74.87
2018-02-08T11:10:35.580Z,70.97
2018-02-08T11:13:03.112Z,65.10
2018-02-08T11:15:30.622Z,66.73
2018-02-08T11:17:58.117Z,66.37
2018-02-08T11:20:25.640Z,69.07
2018-02-08T11:22:53.131Z,69.33
2018-02-08T11:25:20.687Z,75.00
2018-02-08T11:27:48.213Z,67.93
2018-02-08T11:30:15.719Z,72.87
2018-02-08T11:32:43.229Z,70.07
2018-02-08T11:35:10.785Z,65.27
2018-02-08T11:37:38.273Z,70.00
2018-02-08T11:40:05.763Z,64.80
2018-02-08T11:42:33.315Z,61.73
2018-02-08T11:45:00.982Z,60.23
2018-02-08T11:47:28.473Z,68.47
2018-02-08T11:49:55.997Z,74.17
2018-02-08T11:52:23.550Z,68.83
2018-02-08T11:54:51.182Z,66.40
2018-02-08T11:57:18.716Z,64.43
2018-02-08T11:59:46.281Z,65.07
2018-02-08T12:02:13.790Z,69.63
2018-02-08T12:04:41.310Z,72.63
2018-02-08T12:07:08.848Z,64.27
2018-02-08T12:09:36.484Z,71.73
2018-02-08T12:12:04.191Z,69.77
2018-02-08T12:14:31.933Z,73.20
2018-02-08T12:16:59.432Z,61.40
2018-02-08T12:19:26.967Z,61.90
2018-02-08T12:21:54.634Z,59.23
2018-02-08T12:24:22.133Z,59.23
2018-02-08T12:26:49.728Z,69.63
2018-02-08T12:29:17.478Z,64.53
2018-02-08T12:31:44.980Z,59.87
2018-02-08T12:34:12.537Z,56.60
2018-02-08T12:36:40.339Z,48.33
2018-02-08T12:39:07.861Z,50.83
2018-02-08T12:41:35.512Z,53.57
2018-02-08T12:44:03.182Z,55.70
2018-02-08T12:46:30.670Z,47.57
2018-02-08T12:48:58.913Z,53.07
2018-02-08T12:51:26.468Z,57.93
2018-02-08T12:53:53.962Z,57.60
2018-02-08T12:56:21.518Z,49.83
2018-02-08T12:58:49.059Z,42.93
2018-02-08T13:01:16.581Z,47.50
2018-02-08T13:03:44.104Z,45.57
2018-02-08T13:06:11.634Z,43.77
2018-02-08T13:08:39.133Z,42.60
2018-02-08T13:11:06.666Z,35.37
2018-02-08T13:13:34.195Z,32.90
2018-02-08T13:16:01.686Z,38.03
2018-02-08T13:18:32.122Z,32.03
2018-02-08T13:20:59.633Z,35.60
2018-02-08T13:23:27.268Z,41.13
2018-02-08T13:25:54.796Z,40.60
2018-02-08T13:28:22.313Z,39.70
2018-02-08T13:30:49.863Z,39.03
2018-02-08T13:33:17.355Z,46.07
2018-02-08T13:35:44.890Z,52.00
2018-02-08T13:38:12.428Z,49.23
2018-02-08T13:40:47.336Z,58.57
2018-02-08T13:43:14.847Z,63.13
2018-02-08T13:45:42.375Z,64.83
2018-02-08T13:48:11.892Z,64.73
2018-02-08T13:50:39.377Z,73.87
2018-02-08T13:53:12.471Z,68.40
2018-02-08T13:58:56.014Z,72.83
2018-02-08T14:01:25.736Z,76.33
2018-02-08T14:03:53.273Z,71.83
2018-02-08T14:06:20.748Z,71.43
2018-02-08T14:08:48.221Z,71.57
2018-02-08T14:11:15.722Z,73.50
2018-02-08T14:13:43.283Z,71.30
2018-02-08T14:16:10.796Z,76.97
2018-02-08T14:18:38.468Z,73.90
2018-02-08T14:21:05.956Z,72.03
2018-02-08T14:23:33.455Z,79.77
2018-02-08T14:26:00.986Z,70.37
2018-02-08T14:28:28.529Z,67.73
2018-02-08T14:30:56.094Z,72.70
2018-02-08T14:33:23.607Z,65.77
2018-02-08T14:35:51.110Z,67.20
2018-02-08T14:38:18.690Z,57.80
2018-02-08T14:40:46.205Z,58.23
2018-02-08T14:43:13.702Z,64.27
2018-02-08T14:45:41.240Z,58.07
2018-02-08T14:48:08.740Z,67.50
2018-02-08T14:50:36.315Z,62.20
2018-02-08T14:53:03.827Z,59.80
2018-02-08T14:55:31.389Z,59.17
2018-02-08T14:57:58.935Z,64.70
2018-02-08T15:00:26.484Z,61.77
2018-02-08T15:02:54.051Z,62.10
2018-02-08T15:05:21.562Z,58.07
2018-02-08T15:07:49.116Z,73.63
2018-02-08T15:10:16.669Z,65.07
2018-02-08T15:12:44.266Z,68.87
2018-02-08T15:15:11.775Z,60.07
2018-02-08T15:17:39.315Z,56.80
2018-02-08T15:20:06.935Z,63.30
2018-02-08T15:22:34.427Z,62.67
2018-02-08T15:25:02.000Z,69.13
2018-02-08T15:27:29.548Z,60.43
2018-02-08T15:29:57.104Z,59.90
2018-02-08T15:32:24.639Z,59.67
2018-02-08T15:34:52.249Z,61.37
2018-02-08T15:37:19.770Z,60.03
2018-02-08T15:39:47.317Z,67.73
2018-02-08T15:42:14.821Z,67.03
2018-02-08T15:44:42.437Z,60.17
2018-02-08T15:47:09.962Z,66.90
2018-02-08T15:49:37.466Z,65.83
2018-02-08T15:52:04.988Z,67.77
2018-02-08T15:54:32.524Z,66.17
2018-02-08T15:57:00.033Z,68.50
2018-02-08T15:59:27.545Z,66.03
2018-02-08T16:01:55.151Z,71.17
2018-02-08T16:04:22.771Z,65.93
2018-02-08T16:06:50.296Z,60.30
2018-02-08T16:09:17.952Z,67.20
2018-02-08T16:11:45.626Z,64.53
2018-02-08T16:14:13.122Z,65.40
2018-02-08T16:16:40.666Z,65.80
2018-02-08T16:19:08.209Z,66.70
2018-02-08T16:21:35.739Z,66.60
2018-02-08T16:24:03.326Z,63.60
2018-02-08T16:26:30.854Z,69.53
2018-02-08T16:28:58.349Z,70.03
2018-02-08T16:31:25.856Z,64.77
2018-02-08T16:33:54.166Z,65.30
2018-02-08T16:36:21.671Z,64.13
2018-02-08T16:38:49.216Z,67.33
2018-02-08T16:41:16.758Z,67.20
2018-02-08T16:43:44.305Z,75.57
2018-02-08T16:46:11.860Z,78.13
2018-02-08T16:48:39.402Z,77.27
2018-02-08T16:51:06.988Z,78.27
2018-02-08T16:53:34.800Z,65.70
2018-02-08T16:56:02.605Z,76.40
2018-02-08T16:58:30.174Z,71.03
2018-02-08T17:00:57.736Z,80.50
2018-02-08T17:03:25.363Z,71.70
2018-02-08T17:05:52.859Z,73.97
2018-02-08T17:08:20.376Z,75.83
2018-02-08T17:10:47.917Z,74.73
2018-02-08T17:13:15.440Z,82.90
2018-02-08T17:15:42.979Z,74.23
2018-02-08T17:18:10.485Z,75.07
2018-02-08T17:20:38.316Z,74.93
2018-02-08T17:23:05.841Z,72.93
2018-02-08T17:25:33.395Z,72.97
2018-02-08T17:28:00.946Z,75.57
2018-02-08T17:30:28.462Z,68.17
2018-02-08T17:32:56.316Z,75.83
2018-02-08T17:35:23.909Z,76.00
2018-02-08T17:37:51.439Z,78.30
2018-02-08T17:40:19.064Z,73.77
2018-02-08T17:42:46.615Z,69.60
2018-02-08T17:45:14.125Z,80.23
2018-02-08T17:47:44.826Z,70.70
2018-02-08T17:50:12.775Z,77.17
2018-02-08T17:52:40.319Z,71.43
2018-02-08T17:55:07.875Z,71.40
2018-02-08T17:57:35.431Z,75.20
2018-02-08T18:00:02.980Z,85.47
2018-02-08T18:02:30.555Z,79.73
2018-02-08T18:04:58.104Z,81.17
2018-02-08T18:07:25.618Z,78.53
2018-02-08T18:09:53.152Z,80.87
2018-02-08T18:12:20.661Z,80.13
2018-02-08T18:14:48.208Z,84.63
2018-02-08T18:17:15.798Z,86.00
2018-02-08T18:19:43.451Z,81.27
2018-02-08T18:22:10.983Z,87.70
2018-02-08T18:24:38.493Z,90.73
2018-02-08T18:27:06.054Z,88.33
2018-02-08T18:29:33.574Z,89.77
2018-02-08T18:32:01.669Z,94.77
2018-02-08T18:34:29.227Z,92.27
2018-02-08T18:36:56.740Z,81.53
2018-02-08T18:39:24.230Z,92.87
2018-02-08T18:41:52.080Z,97.00
2018-02-08T18:44:19.777Z,96.90
2018-02-08T18:46:48.687Z,92.07
2018-02-08T18:49:16.428Z,99.37
2018-02-08T18:51:45.549Z,96.67
2018-02-08T18:54:13.482Z,101.27
2018-02-08T18:56:41.023Z,94.80
2018-02-08T18:59:08.560Z,94.23
2018-02-08T19:01:36.098Z,99.90
2018-02-08T19:04:04.504Z,102.70
2018-02-08T19:06:32.625Z,100.37
2018-02-08T19:09:00.164Z,95.00
2018-02-08T19:11:27.668Z,90.87
2018-02-08T19:13:55.382Z,89.03
2018-02-08T19:16:22.917Z,91.33
2018-02-08T19:18:51.109Z,98.73
2018-02-08T19:21:18.673Z,95.93
2018-02-08T19:23:46.503Z,98.67
2018-02-08T19:26:14.368Z,95.97
2018-02-08T19:28:41.993Z,91.93
2018-02-08T19:31:09.551Z,99.07
2018-02-08T19:33:37.075Z,89.93
2018-02-08T19:36:04.638Z,96.10
2018-02-08T19:38:32.890Z,89.70
2018-02-08T19:41:00.404Z,95.90
2018-02-08T19:43:27.968Z,95.23
2018-02-08T19:45:55.465Z,107.50
2018-02-08T19:48:22.997Z,94.77
2018-02-08T19:50:50.596Z,106.03
2018-02-08T19:53:18.162Z,102.97
2018-02-08T19:55:45.691Z,100.60
2018-02-08T19:58:13.236Z,108.57
2018-02-08T20:00:40.774Z,112.40
2018-02-08T20:03:08.840Z,99.27
2018-02-08T20:05:36.617Z,101.33
2018-02-08T20:08:04.125Z,96.57
2018-02-08T20:10:31.653Z,107.47
2018-02-08T20:12:59.142Z,106.73
2018-02-08T20:15:37.460Z,100.43
2018-02-08T20:18:05.052Z,107.13
2018-02-08T20:20:32.605Z,100.87
2018-02-08T20:23:00.136Z,97.60
2018-02-08T20:25:33.219Z,97.60
2018-02-08T20:28:00.772Z,117.83
2018-02-08T20:30:28.344Z,102.63
2018-02-08T20:32:55.937Z,107.47
2018-02-08T20:35:23.489Z,102.23
2018-02-08T20:37:51.005Z,100.60
2018-02-08T20:40:32.659Z,99.30
2018-02-08T20:43:05.836Z,109.37
2018-02-08T20:45:33.440Z,109.70
2018-02-08T20:48:01.024Z,100.83
2018-02-08T20:50:28.546Z,107.13
2018-02-08T20:52:56.144Z,111.43
2018-02-08T20:55:23.723Z,97.97
2018-02-08T20:57:51.278Z,99.67
2018-02-08T21:00:18.870Z,110.67
2018-02-08T21:02:46.391Z,102.47
2018-02-08T21:05:13.968Z,99.63
2018-02-08T21:07:41.471Z,98.03
2018-02-08T21:10:09.023Z,109.33
2018-02-08T21:12:36.548Z,110.03
2018-02-08T21:15:04.159Z,111.63
2018-02-08T21:17:31.825Z,101.37
2018-02-08T21:19:59.378Z,100.10
2018-02-08T21:22:26.865Z,109.97
2018-02-08T21:24:54.430Z,119.03
2018-02-08T21:27:21.979Z,104.37
2018-02-08T21:29:49.593Z,102.40
2018-02-08T21:32:17.114Z,114.00
2018-02-08T21:34:44.673Z,98.60
2018-02-08T21:37:12.189Z,117.13
2018-02-08T21:39:39.740Z,98.47
2018-02-08T21:42:07.383Z,108.80
2018-02-08T21:44:34.909Z,109.77
2018-02-08T21:47:02.454Z,111.63
2018-02-08T21:49:29.974Z,110.23
2018-02-08T21:51:57.509Z,99.13
2018-02-08T21:54:25.083Z,102.37
2018-02-08T21:56:52.669Z,108.40
2018-02-08T21:59:20.211Z,101.30
2018-02-08T22:01:47.788Z,95.77
2018-02-08T22:04:15.386Z,118.60
2018-02-08T22:06:42.906Z,111.70
2018-02-08T22:09:10.465Z,105.70
2018-02-08T22:11:37.973Z,107.17
2018-02-08T22:14:05.504Z,110.07
2018-02-08T22:16:33.024Z,106.00
2018-02-08T22:19:00.648Z,107.10
2018-02-08T22:21:28.236Z,109.90
2018-02-08T22:23:56.504Z,99.37
2018-02-08T22:26:24.044Z,106.97
2018-02-08T22:28:51.553Z,101.83
2018-02-08T22:31:19.065Z,106.77
2018-02-08T22:33:46.630Z,111.00
2018-02-08T22:36:14.149Z,110.23
2018-02-08T22:38:47.735Z,107.77
2018-02-08T22:41:15.264Z,115.13
2018-02-08T22:43:42.802Z,108.07
2018-02-08T22:46:10.363Z,108.40
2018-02-08T22:48:37.982Z,108.67
2018-02-08T22:51:05.580Z,105.83
2018-02-08T22:53:33.127Z,103.27
2018-02-08T22:56:00.674Z,112.43
2018-02-08T22:58:28.252Z,118.87
2018-02-08T23:00:55.777Z,110.60
2018-02-08T23:03:23.303Z,118.67
2018-02-08T23:05:50.836Z,110.00
2018-02-08T23:08:18.390Z,112.77
2018-02-08T23:10:46.016Z,117.70
2018-02-08T23:13:13.584Z,120.03
2018-02-08T23:15:41.077Z,116.20
2018-02-08T23:18:08.642Z,111.30
2018-02-08T23:20:36.306Z,115.03
2018-02-08T23:23:03.849Z,106.80
2018-02-08T23:25:31.536Z,120.33
2018-02-08T23:27:59.280Z,111.80
2018-02-08T23:30:27.376Z,115.33
2018-02-08T23:32:54.870Z,112.03
2018-02-08T23:35:22.386Z,117.37
2018-02-08T23:37:50.349Z,109.20
2018-02-08T23:40:17.950Z,119.00
2018-02-08T23:42:45.520Z,109.87
2018-02-08T23:45:13.105Z,117.80
2018-02-08T23:47:40.666Z,117.33
2018-02-08T23:50:08.395Z,109.47
2018-02-08T23:52:36.016Z,119.80
2018-02-08T23:55:03.718Z,108.80
2018-02-08T23:57:31.282Z,118.63
2018-02-08T23:59:58.821Z,114.87
